Time;durP1;ratioP1;P1;durP2;ratioP2;P2;SDS_P1;SDS_P2;PMS_P1;PMS_P2;Temp;Humidity;BMP_temperature;BMP_pressure;BME280_temperature;BME280_humidity;BME280_pressure;Samples;Min_cycle;Max_cycle;Signal;HPM_P1;HPM_P2
2021/12/03 00:00:39;;;;;;;;;;;23.90;48.20;;;;;;1618012;73;735;-69
2021/12/03 00:02:41;;;;;;;;;;;24.00;48.20;;;;;;1612886;73;1158;-68
2021/12/03 00:04:43;;;;;;;;;;;24.00;48.20;;;;;;1624121;73;1956;-68
2021/12/03 00:06:44;;;;;;;;;;;23.90;48.20;;;;;;1625864;73;780;-68
2021/12/03 00:08:46;;;;;;;;;;;24.00;48.20;;;;;;1620777;73;725;-68
2021/12/03 00:10:54;;;;;;;;;;;23.90;48.20;;;;;;1626208;73;776;-68
2021/12/03 00:12:52;;;;;;;;;;;23.90;48.30;;;;;;1622613;73;1608;-69
2021/12/03 00:14:54;;;;;;;;;;;23.90;48.30;;;;;;1624760;73;799;-70
2021/12/03 00:16:56;;;;;;;;;;;23.90;48.30;;;;;;1626575;73;680;-67
2021/12/03 00:18:58;;;;;;;;;;;24.00;48.30;;;;;;1624900;73;749;-68
2021/12/03 00:21:02;;;;;;;;;;;23.90;48.20;;;;;;1629442;73;743;-65
2021/12/03 00:23:04;;;;;;;;;;;23.90;48.20;;;;;;1621461;73;1719;-64
2021/12/03 00:25:06;;;;;;;;;;;23.90;48.20;;;;;;1625511;73;1896;-66
2021/12/03 00:27:07;;;;;;;;;;;24.00;48.20;;;;;;1625600;73;791;-68
2021/12/03 00:29:09;;;;;;;;;;;23.90;48.20;;;;;;1621454;73;718;-67
2021/12/03 00:31:11;;;;;;;;;;;24.00;48.20;;;;;;1613697;71;645;-68
2021/12/03 00:33:13;;;;;;;;;;;23.90;48.30;;;;;;1620216;72;1103;-69
2021/12/03 00:35:15;;;;;;;;;;;24.00;48.20;;;;;;1631169;73;845;-67
2021/12/03 00:37:17;;;;;;;;;;;24.00;48.20;;;;;;1611054;73;810;-68
2021/12/03 00:39:19;;;;;;;;;;;24.00;48.20;;;;;;1617880;73;780;-67
2021/12/03 00:41:22;;;;;;;;;;;23.90;48.30;;;;;;1622229;73;772;-68
2021/12/03 00:43:23;;;;;;;;;;;23.90;48.20;;;;;;1629614;72;1928;-67
2021/12/03 00:45:25;;;;;;;;;;;23.90;48.20;;;;;;1619497;73;733;-68
2021/12/03 00:47:27;;;;;;;;;;;23.90;48.30;;;;;;1619643;73;767;-67
2021/12/03 00:49:29;;;;;;;;;;;23.90;48.30;;;;;;1622811;73;693;-66
2021/12/03 00:51:31;;;;;;;;;;;23.90;48.20;;;;;;1620308;73;747;-66
2021/12/03 00:53:33;;;;;;;;;;;23.90;48.20;;;;;;1636521;72;1162;-67
2021/12/03 00:55:35;;;;;;;;;;;23.90;48.20;;;;;;1619799;72;762;-66
2021/12/03 00:57:37;;;;;;;;;;;24.00;48.20;;;;;;1620292;73;679;-66
2021/12/03 00:59:39;;;;;;;;;;;24.00;48.20;;;;;;1621438;73;759;-69
2021/12/03 01:01:41;;;;;;;;;;;23.90;48.30;;;;;;1610231;73;843;-65
2021/12/03 01:03:43;;;;;;;;;;;23.90;48.30;;;;;;1618961;72;1931;-69
2021/12/03 01:05:45;;;;;;;;;;;23.90;48.30;;;;;;1633609;73;700;-67
2021/12/03 01:07:47;;;;;;;;;;;23.90;48.30;;;;;;1615045;73;780;-66
2021/12/03 01:09:51;;;;;;;;;;;23.90;48.30;;;;;;1608695;72;804;-67
2021/12/03 01:11:55;;;;;;;;;;;24.00;48.40;;;;;;1621349;73;708;-65
2021/12/03 01:14:00;;;;;;;;;;;23.90;48.40;;;;;;1604290;73;1692;-68
2021/12/03 01:16:00;;;;;;;;;;;23.90;48.40;;;;;;1629518;73;1691;-67
2021/12/03 01:18:02;;;;;;;;;;;23.90;48.30;;;;;;1621391;73;703;-69
2021/12/03 01:20:06;;;;;;;;;;;23.90;48.30;;;;;;1628097;71;741;-68
2021/12/03 01:22:08;;;;;;;;;;;23.90;48.30;;;;;;1634642;72;1230;-67
2021/12/03 01:24:10;;;;;;;;;;;23.90;48.40;;;;;;1606009;73;1945;-69
2021/12/03 01:26:12;;;;;;;;;;;23.90;48.40;;;;;;1616859;73;802;-68
2021/12/03 01:28:15;;;;;;;;;;;23.90;48.50;;;;;;1621939;71;717;-69
2021/12/03 01:30:17;;;;;;;;;;;23.90;48.50;;;;;;1618665;71;740;-69
2021/12/03 01:32:19;;;;;;;;;;;23.90;48.50;;;;;;1618899;73;1198;-72
2021/12/03 01:34:21;;;;;;;;;;;23.90;48.50;;;;;;1627482;73;759;-68
2021/12/03 01:36:23;;;;;;;;;;;23.90;48.40;;;;;;1618396;73;785;-67
2021/12/03 01:38:25;;;;;;;;;;;23.90;48.40;;;;;;1615055;73;832;-71
2021/12/03 01:40:27;;;;;;;;;;;23.90;48.50;;;;;;1614280;73;743;-67
2021/12/03 01:42:29;;;;;;;;;;;24.00;48.50;;;;;;1633090;73;1133;-67
2021/12/03 01:44:31;;;;;;;;;;;23.90;48.50;;;;;;1620454;73;1909;-65
2021/12/03 01:46:33;;;;;;;;;;;23.90;48.40;;;;;;1620494;73;737;-67
2021/12/03 01:48:35;;;;;;;;;;;23.90;48.50;;;;;;1613139;73;747;-67
2021/12/03 01:50:39;;;;;;;;;;;23.90;48.50;;;;;;1615116;72;780;-67
2021/12/03 01:52:41;;;;;;;;;;;24.00;48.50;;;;;;1627501;72;1078;-67
2021/12/03 01:54:43;;;;;;;;;;;23.90;48.50;;;;;;1624583;72;768;-67
2021/12/03 01:56:44;;;;;;;;;;;23.90;48.50;;;;;;1625467;73;673;-66
2021/12/03 01:58:47;;;;;;;;;;;24.00;48.60;;;;;;1624262;73;817;-69
2021/12/03 02:00:51;;;;;;;;;;;23.90;48.50;;;;;;1618104;73;732;-68
2021/12/03 02:02:53;;;;;;;;;;;23.90;48.50;;;;;;1620017;73;1785;-68
2021/12/03 02:04:57;;;;;;;;;;;24.00;48.50;;;;;;1618725;73;1923;-69
2021/12/03 02:06:59;;;;;;;;;;;23.90;48.60;;;;;;1626330;71;679;-69
2021/12/03 02:09:01;;;;;;;;;;;23.90;48.60;;;;;;1614974;73;798;-65
2021/12/03 02:11:03;;;;;;;;;;;23.90;48.60;;;;;;1632411;73;717;-67
2021/12/03 02:13:05;;;;;;;;;;;23.90;48.60;;;;;;1624074;72;1193;-68
2021/12/03 02:15:08;;;;;;;;;;;23.90;48.60;;;;;;1618194;71;682;-68
2021/12/03 02:17:09;;;;;;;;;;;23.90;48.60;;;;;;1617475;73;846;-69
2021/12/03 02:19:12;;;;;;;;;;;23.90;48.60;;;;;;1617236;72;732;-70
2021/12/03 02:21:14;;;;;;;;;;;23.90;48.70;;;;;;1640214;72;752;-70
2021/12/03 02:23:16;;;;;;;;;;;23.90;48.60;;;;;;1609273;72;1146;-69
2021/12/03 02:25:20;;;;;;;;;;;23.90;48.70;;;;;;1615948;72;1935;-69
2021/12/03 02:27:22;;;;;;;;;;;23.90;48.60;;;;;;1619913;71;706;-69
2021/12/03 02:29:24;;;;;;;;;;;23.90;48.70;;;;;;1633096;72;783;-68
2021/12/03 02:31:26;;;;;;;;;;;23.90;48.60;;;;;;1631010;71;827;-68
2021/12/03 02:33:27;;;;;;;;;;;23.90;48.60;;;;;;1627829;72;1140;-68
2021/12/03 02:35:29;;;;;;;;;;;23.90;48.60;;;;;;1617713;72;775;-68
2021/12/03 02:37:31;;;;;;;;;;;23.90;48.50;;;;;;1618698;73;778;-68
2021/12/03 02:39:33;;;;;;;;;;;23.90;48.60;;;;;;1617770;71;827;-69
2021/12/03 02:41:35;;;;;;;;;;;23.90;48.50;;;;;;1619725;73;776;-69
2021/12/03 02:43:37;;;;;;;;;;;23.90;48.60;;;;;;1612512;72;1141;-68
2021/12/03 02:45:39;;;;;;;;;;;23.90;48.60;;;;;;1616606;73;1929;-68
2021/12/03 02:47:40;;;;;;;;;;;23.90;48.60;;;;;;1612615;73;825;-68
2021/12/03 02:49:42;;;;;;;;;;;23.90;48.50;;;;;;1624642;71;820;-68
2021/12/03 02:51:44;;;;;;;;;;;23.90;48.60;;;;;;1624065;71;766;-68
2021/12/03 02:53:46;;;;;;;;;;;23.90;48.60;;;;;;1613892;72;1079;-67
2021/12/03 02:55:49;;;;;;;;;;;23.90;48.50;;;;;;1616697;73;685;-68
2021/12/03 02:57:51;;;;;;;;;;;23.90;48.60;;;;;;1612326;73;819;-68
2021/12/03 02:59:53;;;;;;;;;;;23.90;48.50;;;;;;1618886;73;1026;-66
2021/12/03 03:01:55;;;;;;;;;;;23.90;48.50;;;;;;1625262;73;1138;-66
2021/12/03 03:03:57;;;;;;;;;;;23.80;48.40;;;;;;1626767;73;688;-67
2021/12/03 03:06:00;;;;;;;;;;;23.90;48.50;;;;;;1625077;73;1947;-66
2021/12/03 03:08:02;;;;;;;;;;;23.90;48.50;;;;;;1625384;73;906;-67
2021/12/03 03:10:04;;;;;;;;;;;23.90;48.60;;;;;;1620633;73;725;-67
2021/12/03 03:12:06;;;;;;;;;;;23.90;48.50;;;;;;1622716;73;1232;-67
2021/12/03 03:14:08;;;;;;;;;;;23.80;48.50;;;;;;1622664;72;706;-67
2021/12/03 03:16:10;;;;;;;;;;;23.90;48.60;;;;;;1632608;72;791;-66
2021/12/03 03:18:17;;;;;;;;;;;23.80;48.40;;;;;;1611934;73;707;-68
2021/12/03 03:20:18;;;;;;;;;;;23.90;48.60;;;;;;1615531;73;700;-66
2021/12/03 03:22:20;;;;;;;;;;;23.90;48.60;;;;;;1620470;72;1247;-68
2021/12/03 03:24:22;;;;;;;;;;;23.90;48.60;;;;;;1618842;73;1934;-68
2021/12/03 03:26:24;;;;;;;;;;;23.80;48.50;;;;;;1625216;71;776;-68
2021/12/03 03:28:26;;;;;;;;;;;23.90;48.50;;;;;;1616084;73;727;-68
2021/12/03 03:30:28;;;;;;;;;;;23.90;48.50;;;;;;1628958;73;708;-70
2021/12/03 03:32:30;;;;;;;;;;;23.90;48.40;;;;;;1623006;73;1130;-67
2021/12/03 03:34:32;;;;;;;;;;;23.90;48.40;;;;;;1631213;72;821;-69
2021/12/03 03:36:34;;;;;;;;;;;23.90;48.40;;;;;;1628409;73;721;-67
2021/12/03 03:38:36;;;;;;;;;;;24.00;48.40;;;;;;1630867;73;827;-68
2021/12/03 03:40:38;;;;;;;;;;;23.90;48.40;;;;;;1617722;73;808;-68
2021/12/03 03:42:40;;;;;;;;;;;23.90;48.40;;;;;;1622742;73;1126;-69
2021/12/03 03:44:42;;;;;;;;;;;24.00;48.40;;;;;;1633999;73;1915;-68
2021/12/03 03:46:45;;;;;;;;;;;24.00;48.30;;;;;;1624100;72;709;-68
2021/12/03 03:48:47;;;;;;;;;;;24.00;48.20;;;;;;1614792;73;694;-67
2021/12/03 03:50:49;;;;;;;;;;;24.00;48.10;;;;;;1629884;73;778;-67
2021/12/03 03:52:51;;;;;;;;;;;24.10;48.20;;;;;;1631501;73;1172;-67
2021/12/03 03:54:53;;;;;;;;;;;24.00;48.10;;;;;;1616756;73;777;-69
2021/12/03 03:56:55;;;;;;;;;;;24.00;48.20;;;;;;1613346;73;774;-72
2021/12/03 03:58:57;;;;;;;;;;;23.90;48.30;;;;;;1619142;71;677;-67
2021/12/03 04:00:58;;;;;;;;;;;23.90;48.40;;;;;;1623604;73;754;-67
2021/12/03 04:03:00;;;;;;;;;;;23.90;48.60;;;;;;1603466;72;3157;-66
2021/12/03 04:05:02;;;;;;;;;;;23.80;48.70;;;;;;1482265;79;1942;-67
2021/12/03 04:07:04;;;;;;;;;;;23.80;48.80;;;;;;1490061;78;692;-68
2021/12/03 04:09:06;;;;;;;;;;;23.70;48.90;;;;;;1495682;78;726;-67
2021/12/03 04:11:08;;;;;;;;;;;23.70;49.00;;;;;;1525805;78;667;-67
2021/12/03 04:13:10;;;;;;;;;;;23.60;49.00;;;;;;1526913;76;1181;-68
2021/12/03 04:15:12;;;;;;;;;;;23.60;49.30;;;;;;1526260;77;737;-70
2021/12/03 04:17:14;;;;;;;;;;;23.60;49.40;;;;;;1525996;78;765;-68
2021/12/03 04:19:17;;;;;;;;;;;23.60;49.60;;;;;;1523628;78;704;-67
2021/12/03 04:21:19;;;;;;;;;;;23.50;49.70;;;;;;1489024;78;817;-68
2021/12/03 04:23:21;;;;;;;;;;;23.50;49.70;;;;;;1488803;78;1112;-71
2021/12/03 04:25:23;;;;;;;;;;;23.50;49.80;;;;;;1488871;78;1954;-68
2021/12/03 04:27:25;;;;;;;;;;;23.50;49.90;;;;;;1489100;78;768;-68
2021/12/03 04:29:27;;;;;;;;;;;23.50;49.90;;;;;;1488936;78;767;-68
2021/12/03 04:31:31;;;;;;;;;;;23.40;49.80;;;;;;1489134;78;719;-68
2021/12/03 04:33:33;;;;;;;;;;;23.50;50.00;;;;;;1486588;78;1100;-69
2021/12/03 04:35:35;;;;;;;;;;;23.50;50.00;;;;;;1465773;80;798;-70
2021/12/03 04:37:38;;;;;;;;;;;23.40;50.00;;;;;;1489379;78;702;-69
2021/12/03 04:39:39;;;;;;;;;;;23.40;50.00;;;;;;1488780;78;692;-69
2021/12/03 04:41:41;;;;;;;;;;;23.40;50.00;;;;;;1488978;80;720;-69
2021/12/03 04:43:43;;;;;;;;;;;23.40;50.10;;;;;;1488924;78;1148;-69
2021/12/03 04:45:45;;;;;;;;;;;23.50;50.20;;;;;;1488863;80;1954;-69
2021/12/03 04:47:47;;;;;;;;;;;23.40;50.00;;;;;;1489848;78;799;-69
2021/12/03 04:49:49;;;;;;;;;;;23.40;50.10;;;;;;1489915;78;792;-69
2021/12/03 04:51:51;;;;;;;;;;;23.40;50.10;;;;;;1489541;78;773;-69
2021/12/03 04:53:53;;;;;;;;;;;23.40;50.10;;;;;;1489633;78;1102;-71
2021/12/03 04:55:55;;;;;;;;;;;23.40;50.10;;;;;;1489390;78;771;-70
2021/12/03 04:57:57;;;;;;;;;;;23.50;50.20;;;;;;1489678;78;779;-71
2021/12/03 04:59:59;;;;;;;;;;;23.50;50.20;;;;;;1488585;79;753;-68
2021/12/03 05:02:01;;;;;;;;;;;23.50;50.20;;;;;;1488298;79;703;-68
2021/12/03 05:04:02;;;;;;;;;;;23.50;50.10;;;;;;1488985;78;1168;-68
2021/12/03 05:06:08;;;;;;;;;;;23.50;50.00;;;;;;1491021;78;1943;-69
2021/12/03 05:08:08;;;;;;;;;;;23.50;50.00;;;;;;1494418;79;1703;-70
2021/12/03 05:10:10;;;;;;;;;;;23.60;50.00;;;;;;1491039;78;757;-68
2021/12/03 05:12:12;;;;;;;;;;;23.60;49.90;;;;;;1490988;78;743;-70
2021/12/03 05:14:14;;;;;;;;;;;23.60;49.80;;;;;;1489962;78;1173;-68
2021/12/03 05:16:16;;;;;;;;;;;23.60;49.90;;;;;;1485799;78;1066;-65
2021/12/03 05:18:19;;;;;;;;;;;23.50;50.00;;;;;;1468086;80;755;-66
2021/12/03 05:20:21;;;;;;;;;;;23.60;50.10;;;;;;1496070;78;817;-67
2021/12/03 05:22:23;;;;;;;;;;;23.50;50.10;;;;;;1497624;78;1097;-68
2021/12/03 05:24:25;;;;;;;;;;;23.50;50.20;;;;;;1495701;78;781;-66
2021/12/03 05:26:27;;;;;;;;;;;23.50;50.20;;;;;;1490635;78;1946;-65
2021/12/03 05:28:28;;;;;;;;;;;23.50;50.20;;;;;;1491120;80;768;-64
2021/12/03 05:30:30;;;;;;;;;;;23.50;50.20;;;;;;1490956;78;788;-66
2021/12/03 05:32:32;;;;;;;;;;;23.60;50.20;;;;;;1490984;80;1109;-66
2021/12/03 05:34:34;;;;;;;;;;;23.60;50.10;;;;;;1497274;79;799;-67
2021/12/03 05:36:37;;;;;;;;;;;23.50;50.10;;;;;;1524560;77;822;-66
2021/12/03 05:38:39;;;;;;;;;;;23.50;50.10;;;;;;1524145;76;738;-66
2021/12/03 05:40:41;;;;;;;;;;;23.60;50.00;;;;;;1490969;78;707;-66
2021/12/03 05:42:45;;;;;;;;;;;23.60;50.00;;;;;;1480699;78;1236;-67
2021/12/03 05:44:46;;;;;;;;;;;23.60;50.00;;;;;;1496795;79;763;-67
2021/12/03 05:46:48;;;;;;;;;;;23.50;50.00;;;;;;1490912;78;1946;-67
2021/12/03 05:48:50;;;;;;;;;;;23.50;50.00;;;;;;1490624;80;737;-63
2021/12/03 05:50:52;;;;;;;;;;;23.60;50.00;;;;;;1491439;78;713;-68
2021/12/03 05:52:54;;;;;;;;;;;23.60;50.00;;;;;;1491071;78;1158;-65
2021/12/03 05:54:56;;;;;;;;;;;23.60;50.00;;;;;;1489950;78;743;-67
2021/12/03 05:56:58;;;;;;;;;;;23.60;50.10;;;;;;1491575;78;730;-69
2021/12/03 05:59:00;;;;;;;;;;;23.50;50.20;;;;;;1492018;78;1035;-66
2021/12/03 06:01:02;;;;;;;;;;;23.50;50.20;;;;;;1492094;78;792;-67
2021/12/03 06:03:04;;;;;;;;;;;23.50;50.30;;;;;;1492120;78;1171;-68
2021/12/03 06:05:06;;;;;;;;;;;23.60;50.30;;;;;;1490040;78;697;-68
2021/12/03 06:07:08;;;;;;;;;;;23.50;50.20;;;;;;1489373;78;1936;-68
2021/12/03 06:09:10;;;;;;;;;;;23.50;50.30;;;;;;1488472;79;696;-67
2021/12/03 06:11:12;;;;;;;;;;;23.50;50.30;;;;;;1488837;78;751;-69
2021/12/03 06:13:14;;;;;;;;;;;23.50;50.40;;;;;;1487434;79;1125;-66
2021/12/03 06:15:16;;;;;;;;;;;23.50;50.40;;;;;;1489394;79;806;-63
2021/12/03 06:17:17;;;;;;;;;;;23.50;50.60;;;;;;1455949;80;840;-64
2021/12/03 06:19:19;;;;;;;;;;;23.60;50.60;;;;;;1474647;80;723;-63
2021/12/03 06:21:21;;;;;;;;;;;23.80;50.00;;;;;;1483277;80;826;-63
2021/12/03 06:23:23;;;;;;;;;;;24.00;49.50;;;;;;1471911;79;1098;-64
2021/12/03 06:25:25;;;;;;;;;;;24.00;49.20;;;;;;1483754;79;1923;-64
2021/12/03 06:27:29;;;;;;;;;;;24.00;48.90;;;;;;1488246;79;829;-65
2021/12/03 06:29:31;;;;;;;;;;;24.00;48.60;;;;;;1479424;80;1651;-64
2021/12/03 06:31:33;;;;;;;;;;;24.00;48.60;;;;;;1488503;79;754;-64
2021/12/03 06:33:35;;;;;;;;;;;24.10;48.80;;;;;;1485578;79;1211;-66
2021/12/03 06:35:37;;;;;;;;;;;24.00;48.60;;;;;;1499850;78;756;-62
2021/12/03 06:37:39;;;;;;;;;;;24.00;48.50;;;;;;1467778;80;773;-66
2021/12/03 06:39:41;;;;;;;;;;;24.10;48.70;;;;;;1488221;79;734;-65
2021/12/03 06:41:43;;;;;;;;;;;24.10;48.70;;;;;;1481837;80;700;-66
2021/12/03 06:43:44;;;;;;;;;;;24.10;48.70;;;;;;1488533;78;1112;-63
2021/12/03 06:45:46;;;;;;;;;;;24.00;48.60;;;;;;1488605;80;1942;-66
2021/12/03 06:47:48;;;;;;;;;;;24.00;48.50;;;;;;1488168;78;764;-63
2021/12/03 06:49:50;;;;;;;;;;;24.00;48.20;;;;;;1483836;80;752;-63
2021/12/03 06:51:57;;;;;;;;;;;24.00;47.20;;;;;;1487806;80;727;-63
2021/12/03 06:54:00;;;;;;;;;;;23.90;47.30;;;;;;1487712;78;1665;-65
2021/12/03 06:56:05;;;;;;;;;;;24.00;47.40;;;;;;1487943;78;1624;-63
2021/12/03 06:58:03;;;;;;;;;;;24.00;47.40;;;;;;1520712;76;1561;-65
2021/12/03 07:00:05;;;;;;;;;;;24.00;47.40;;;;;;1517914;77;742;-64
2021/12/03 07:02:07;;;;;;;;;;;23.90;47.40;;;;;;1488517;79;728;-67
2021/12/03 07:04:09;;;;;;;;;;;23.90;47.30;;;;;;1488587;78;1152;-64
2021/12/03 07:06:11;;;;;;;;;;;23.90;47.30;;;;;;1508283;77;1941;-64
2021/12/03 07:08:13;;;;;;;;;;;24.00;47.30;;;;;;1508403;77;814;-64
2021/12/03 07:10:15;;;;;;;;;;;23.90;47.40;;;;;;1509570;78;736;-65
2021/12/03 07:12:17;;;;;;;;;;;23.90;47.40;;;;;;1507634;77;1138;-62
2021/12/03 07:14:19;;;;;;;;;;;23.90;47.30;;;;;;1485018;79;787;-65
2021/12/03 07:16:21;;;;;;;;;;;23.90;47.30;;;;;;1509566;77;733;-65
2021/12/03 07:18:22;;;;;;;;;;;23.90;47.30;;;;;;1509649;77;796;-64
2021/12/03 07:20:25;;;;;;;;;;;23.90;47.30;;;;;;1509442;77;864;-67
2021/12/03 07:22:28;;;;;;;;;;;23.90;47.30;;;;;;1509781;77;1147;-64
2021/12/03 07:24:29;;;;;;;;;;;23.80;47.20;;;;;;1509844;77;718;-65
2021/12/03 07:26:31;;;;;;;;;;;23.90;47.30;;;;;;1509820;77;1964;-67
2021/12/03 07:28:33;;;;;;;;;;;23.90;47.30;;;;;;1484419;79;811;-67
2021/12/03 07:30:35;;;;;;;;;;;23.90;47.30;;;;;;1511335;77;732;-65
2021/12/03 07:32:37;;;;;;;;;;;23.90;47.30;;;;;;1508891;78;1144;-69
2021/12/03 07:34:39;;;;;;;;;;;23.90;47.30;;;;;;1508922;77;804;-66
2021/12/03 07:36:41;;;;;;;;;;;23.90;47.30;;;;;;1495065;79;731;-62
2021/12/03 07:38:42;;;;;;;;;;;23.90;47.30;;;;;;1503524;77;785;-66
2021/12/03 07:40:45;;;;;;;;;;;23.90;47.30;;;;;;1508365;79;721;-64
2021/12/03 07:42:47;;;;;;;;;;;23.90;47.20;;;;;;1507521;77;1126;-66
2021/12/03 07:44:49;;;;;;;;;;;23.90;47.20;;;;;;1503793;79;772;-66
2021/12/03 07:46:51;;;;;;;;;;;23.80;47.10;;;;;;1507511;77;1911;-66
2021/12/03 07:48:53;;;;;;;;;;;23.90;47.10;;;;;;1508172;77;794;-70
2021/12/03 07:50:56;;;;;;;;;;;23.90;47.10;;;;;;1509016;77;778;-67
2021/12/03 07:52:58;;;;;;;;;;;23.90;47.20;;;;;;1509311;77;1153;-66
2021/12/03 07:55:00;;;;;;;;;;;23.90;47.10;;;;;;1509616;77;760;-66
2021/12/03 07:57:02;;;;;;;;;;;23.90;47.20;;;;;;1509393;77;735;-67
2021/12/03 07:59:04;;;;;;;;;;;23.90;47.20;;;;;;1508331;77;686;-67
2021/12/03 08:01:06;;;;;;;;;;;23.90;47.10;;;;;;1507180;77;787;-67
2021/12/03 08:03:08;;;;;;;;;;;23.90;47.20;;;;;;1507369;78;1194;-67
2021/12/03 08:05:10;;;;;;;;;;;23.90;47.20;;;;;;1508415;77;1025;-67
2021/12/03 08:07:12;;;;;;;;;;;23.90;47.20;;;;;;1507655;77;1949;-67
2021/12/03 08:09:14;;;;;;;;;;;23.90;47.10;;;;;;1507630;79;676;-65
2021/12/03 08:11:16;;;;;;;;;;;23.90;47.10;;;;;;1508486;79;802;-67
2021/12/03 08:13:18;;;;;;;;;;;23.90;47.20;;;;;;1508750;77;1110;-67
2021/12/03 08:15:20;;;;;;;;;;;23.90;47.10;;;;;;1508123;77;772;-68
2021/12/03 08:17:22;;;;;;;;;;;23.90;47.10;;;;;;1505032;79;719;-67
2021/12/03 08:19:24;;;;;;;;;;;23.90;47.10;;;;;;1508202;77;862;-70
2021/12/03 08:21:26;;;;;;;;;;;23.90;47.10;;;;;;1508563;77;753;-67
2021/12/03 08:23:28;;;;;;;;;;;23.90;47.10;;;;;;1508455;77;1143;-68
2021/12/03 08:25:30;;;;;;;;;;;23.90;47.10;;;;;;1484850;79;812;-67
2021/12/03 08:27:31;;;;;;;;;;;23.90;47.20;;;;;;1509460;77;1949;-67
2021/12/03 08:29:33;;;;;;;;;;;23.90;47.20;;;;;;1509787;77;753;-68
2021/12/03 08:31:35;;;;;;;;;;;23.90;47.10;;;;;;1509859;77;744;-67
2021/12/03 08:33:37;;;;;;;;;;;23.90;47.10;;;;;;1509679;77;1155;-67
2021/12/03 08:35:39;;;;;;;;;;;23.80;47.10;;;;;;1509355;77;758;-67
2021/12/03 08:37:45;;;;;;;;;;;23.90;47.10;;;;;;1511633;77;831;-70
2021/12/03 08:39:44;;;;;;;;;;;23.90;47.10;;;;;;1490037;79;1478;-68
2021/12/03 08:41:46;;;;;;;;;;;23.80;47.10;;;;;;1507335;77;838;-72
2021/12/03 08:43:49;;;;;;;;;;;23.90;47.10;;;;;;1508629;77;1135;-69
2021/12/03 08:45:54;;;;;;;;;;;23.80;46.70;;;;;;1507960;79;858;-69
2021/12/03 08:47:58;;;;;;;;;;;23.80;45.90;;;;;;1508129;79;1914;-69
2021/12/03 08:50:00;;;;;;;;;;;23.70;45.30;;;;;;1494913;79;1648;-69
2021/12/03 08:56:24;;;;;;;;;;;23.70;44.10;;;;;;1508413;77;1613;-70
2021/12/03 08:58:27;;;;;;;;;;;23.60;43.60;;;;;;1509369;77;830;-71
2021/12/03 09:00:30;;;;;;;;;;;23.60;43.30;;;;;;1487349;79;745;-69
2021/12/03 09:02:32;;;;;;;;;;;23.60;43.40;;;;;;1509705;77;1194;-69
2021/12/03 09:04:34;;;;;;;;;;;23.60;43.20;;;;;;1508287;77;776;-67
2021/12/03 09:06:36;;;;;;;;;;;23.60;42.90;;;;;;1512857;76;1930;-71
2021/12/03 09:08:38;;;;;;;;;;;23.50;42.80;;;;;;1512008;77;795;-69
2021/12/03 09:10:40;;;;;;;;;;;23.50;42.80;;;;;;1508474;77;765;-69
2021/12/03 09:12:42;;;;;;;;;;;23.50;42.80;;;;;;1495391;77;1196;-69
2021/12/03 09:14:49;;;;;;;;;;;23.50;42.60;;;;;;1508494;77;710;-69
2021/12/03 09:16:56;;;;;;;;;;;23.50;42.60;;;;;;1508154;77;1605;-71
2021/12/03 09:18:53;;;;;;;;;;;23.50;42.40;;;;;;1508528;77;1671;-69
2021/12/03 09:21:03;;;;;;;;;;;23.50;42.30;;;;;;1509310;77;686;-67
2021/12/03 09:23:03;;;;;;;;;;;23.50;42.30;;;;;;1508017;77;1467;-67
2021/12/03 09:25:02;;;;;;;;;;;23.50;42.40;;;;;;1505968;78;1783;-70
2021/12/03 09:27:04;;;;;;;;;;;23.50;42.20;;;;;;1509764;79;1930;-69
2021/12/03 09:29:08;;;;;;;;;;;23.40;42.30;;;;;;1507633;77;821;-69
2021/12/03 09:31:11;;;;;;;;;;;23.40;42.30;;;;;;1507541;78;1480;-71
2021/12/03 09:33:17;;;;;;;;;;;23.40;42.30;;;;;;1508447;78;1152;-69
2021/12/03 09:35:17;;;;;;;;;;;23.50;42.30;;;;;;1511724;78;1746;-68
2021/12/03 09:37:19;;;;;;;;;;;23.50;42.30;;;;;;1514683;77;796;-69
2021/12/03 09:39:23;;;;;;;;;;;23.50;42.30;;;;;;1508871;77;782;-71
2021/12/03 09:41:24;;;;;;;;;;;23.50;42.10;;;;;;1493372;79;1666;-68
2021/12/03 09:43:26;;;;;;;;;;;23.50;41.90;;;;;;1509846;77;1170;-68
2021/12/03 09:45:28;;;;;;;;;;;23.60;41.90;;;;;;1509983;77;753;-68
2021/12/03 09:47:30;;;;;;;;;;;23.60;41.80;;;;;;1505811;77;1925;-69
2021/12/03 09:49:33;;;;;;;;;;;23.60;41.60;;;;;;1509796;77;805;-69
2021/12/03 09:52:24;;;;;;;;;;;23.60;41.50;;;;;;1509461;77;769;-73
2021/12/03 09:55:49;;;;;;;;;;;23.60;41.40;;;;;;1505981;77;857;-69
2021/12/03 09:58:06;;;;;;;;;;;23.60;41.30;;;;;;1509881;77;865;-68
2021/12/03 10:13:32;;;;;;;;;;;23.60;40.70;;;;;;1527934;76;1240;-69
2021/12/03 10:15:33;;;;;;;;;;;23.60;40.50;;;;;;1515108;78;1638;-69
2021/12/03 10:19:46;;;;;;;;;;;23.50;40.50;;;;;;1493464;77;1177;-68
2021/12/03 10:24:32;;;;;;;;;;;23.60;40.30;;;;;;1497242;77;1166;-67
2021/12/03 10:29:04;;;;;;;;;;;23.60;40.00;;;;;;1521554;78;1854;-68
2021/12/03 10:44:13;;;;;;;;;;;23.70;39.70;;;;;;1521595;77;1122;-68
2021/12/03 10:48:30;;;;;;;;;;;23.60;39.60;;;;;;1523619;77;1912;-68
2021/12/03 11:04:44;;;;;;;;;;;23.50;38.90;;;;;;1527125;76;1190;-68
2021/12/03 11:40:44;;;;;;;;;;;23.60;37.90;;;;;;1523760;77;732;-69
2021/12/03 11:50:09;;;;;;;;;;;23.60;37.80;;;;;;1524007;78;1772;-68
2021/12/03 11:59:15;;;;;;;;;;;23.60;37.40;;;;;;1509673;78;1652;-70
2021/12/03 12:09:04;;;;;;;;;;;23.60;38.00;;;;;;1525996;78;1920;-70
2021/12/03 12:23:30;;;;;;;;;;;23.20;36.70;;;;;;1492755;78;1026;-70
2021/12/03 12:32:37;;;;;;;;;;;23.20;37.20;;;;;;1518845;77;885;-70
2021/12/03 12:39:12;;;;;;;;;;;23.10;35.90;;;;;;1524224;78;822;-69
2021/12/03 12:45:41;;;;;;;;;;;23.00;34.90;;;;;;1521082;78;1670;-69
2021/12/03 12:57:24;;;;;;;;;;;22.80;33.00;;;;;;1525062;78;1707;-69
2021/12/03 13:01:35;;;;;;;;;;;22.70;33.00;;;;;;1525819;76;860;-69
2021/12/03 13:12:34;;;;;;;;;;;22.60;32.50;;;;;;1486242;78;1047;-69
2021/12/03 13:31:35;;;;;;;;;;;22.40;33.00;;;;;;1524570;78;1641;-70
2021/12/03 14:36:49;;;;;;;;;;;22.30;35.00;;;;;;1505861;77;897;-72
2021/12/03 14:41:04;;;;;;;;;;;22.10;34.80;;;;;;1531013;77;1622;-70
2021/12/03 14:45:12;;;;;;;;;;;22.20;34.90;;;;;;1529257;76;856;-67
2021/12/03 14:51:44;;;;;;;;;;;22.20;34.60;;;;;;1528960;76;795;-67
2021/12/03 14:55:57;;;;;;;;;;;22.10;34.00;;;;;;1589394;74;859;-67
2021/12/03 14:58:14;;;;;;;;;;;22.20;33.90;;;;;;1585652;74;1573;-68
2021/12/03 15:06:51;;;;;;;;;;;22.30;34.00;;;;;;1584371;73;805;-68
2021/12/03 15:16:18;;;;;;;;;;;22.30;34.00;;;;;;1577350;73;1659;-66
2021/12/03 15:20:17;;;;;;;;;;;22.20;33.70;;;;;;1586030;74;1650;-70
2021/12/03 15:31:04;;;;;;;;;;;22.20;33.30;;;;;;1590027;74;772;-67
2021/12/03 15:33:13;;;;;;;;;;;22.20;33.20;;;;;;1588443;73;1731;-65
2021/12/03 15:58:10;;;;;;;;;;;22.20;32.80;;;;;;1587905;74;850;-66
2021/12/03 16:04:56;;;;;;;;;;;22.20;32.60;;;;;;1588510;71;2099;-64
2021/12/03 16:09:15;;;;;;;;;;;22.20;32.60;;;;;;1595549;74;1910;-63
2021/12/03 16:13:35;;;;;;;;;;;22.20;32.50;;;;;;1584556;73;1211;-62
2021/12/03 16:18:18;;;;;;;;;;;22.10;32.50;;;;;;1608386;72;869;-64
2021/12/03 16:26:58;;;;;;;;;;;22.20;32.50;;;;;;1616307;72;871;-63
2021/12/03 16:47:00;;;;;;;;;;;22.10;31.90;;;;;;1609048;73;795;-64
2021/12/03 16:51:24;;;;;;;;;;;22.20;32.00;;;;;;1611794;73;733;-63
2021/12/03 16:53:22;;;;;;;;;;;22.10;31.80;;;;;;1600688;72;1689;-63
2021/12/03 16:55:20;;;;;;;;;;;22.10;31.70;;;;;;1622091;72;1029;-64
2021/12/03 16:57:28;;;;;;;;;;;22.10;31.70;;;;;;1613631;72;779;-63
2021/12/03 16:59:25;;;;;;;;;;;22.20;31.70;;;;;;1614745;72;1609;-66
2021/12/03 17:02:35;;;;;;;;;;;22.10;31.60;;;;;;1613033;73;779;-64
2021/12/03 17:47:21;;;;;;;;;;;22.00;33.70;;;;;;1619043;72;1637;-67
2021/12/03 17:51:07;;;;;;;;;;;22.00;34.60;;;;;;1621872;73;808;-66
2021/12/03 17:55:58;;;;;;;;;;;22.10;35.20;;;;;;1622907;72;813;-65
2021/12/03 17:57:43;;;;;;;;;;;22.10;35.50;;;;;;1612182;72;1451;-65
2021/12/03 17:59:47;;;;;;;;;;;22.10;35.70;;;;;;1615888;73;1731;-62
2021/12/03 18:02:01;;;;;;;;;;;22.10;35.80;;;;;;1611528;72;1594;-65
2021/12/03 18:04:07;;;;;;;;;;;22.10;36.00;;;;;;1614879;72;1141;-70
2021/12/03 18:09:23;;;;;;;;;;;22.20;36.20;;;;;;1616868;72;876;-65
2021/12/03 18:13:02;;;;;;;;;;;22.20;36.50;;;;;;1602261;72;729;-66
2021/12/03 18:55:51;;;;;;;;;;;22.40;38.20;;;;;;1606115;72;947;-67
2021/12/03 18:57:51;;;;;;;;;;;22.50;38.40;;;;;;1600720;72;1674;-66
2021/12/03 18:59:56;;;;;;;;;;;22.50;38.50;;;;;;1613434;73;1591;-69
2021/12/03 19:01:58;;;;;;;;;;;22.50;38.50;;;;;;1608510;72;1684;-67
2021/12/03 19:04:11;;;;;;;;;;;22.50;38.60;;;;;;1609121;72;1648;-69
2021/12/03 19:06:17;;;;;;;;;;;22.50;38.60;;;;;;1606763;72;1566;-66
2021/12/03 19:08:19;;;;;;;;;;;22.40;38.60;;;;;;1605302;72;1120;-63
2021/12/03 19:10:22;;;;;;;;;;;22.50;38.70;;;;;;1603680;72;1915;-64
2021/12/03 19:12:25;;;;;;;;;;;22.50;38.80;;;;;;1605772;72;1640;-69
2021/12/03 19:14:28;;;;;;;;;;;22.50;38.80;;;;;;1604965;72;1470;-66
2021/12/03 19:16:30;;;;;;;;;;;22.50;38.90;;;;;;1606091;72;1739;-66
2021/12/03 19:18:32;;;;;;;;;;;22.50;38.90;;;;;;1604868;72;913;-68
2021/12/03 19:20:40;;;;;;;;;;;22.50;38.90;;;;;;1607732;72;763;-63
2021/12/03 19:22:37;;;;;;;;;;;22.50;38.90;;;;;;1610762;72;1565;-67